Time;durP1;ratioP1;P1;durP2;ratioP2;P2;SDS_P1;SDS_P2;PMS_P1;PMS_P2;Temp;Humidity;BMP_temperature;BMP_pressure;BME280_temperature;BME280_humidity;BME280_pressure;Samples;Min_cycle;Max_cycle;Signal;HPM_P1;HPM_P2
2022/12/20 00:01:33;;;;;;;18.15;8.32;;;;;;;5.33;98.34;101062.00;6052018;28;20060;-71
2022/12/20 00:04:28;;;;;;;22.80;9.63;;;;;;;5.30;98.22;101064.81;6051337;28;20164;-73
2022/12/20 00:07:24;;;;;;;21.00;8.27;;;;;;;5.30;98.74;101063.03;6051977;28;20042;-73
2022/12/20 00:10:19;;;;;;;18.57;8.67;;;;;;;5.27;98.93;101062.44;6052162;28;20034;-73
2022/12/20 00:13:14;;;;;;;22.15;8.32;;;;;;;5.29;98.83;101061.38;6050921;28;20060;-74
2022/12/20 00:16:11;;;;;;;18.60;8.57;;;;;;;5.36;99.31;101067.03;6051876;28;20038;-72
2022/12/20 00:19:08;;;;;;;23.42;9.88;;;;;;;5.32;98.94;101049.81;6051562;28;20037;-71
2022/12/20 00:22:04;;;;;;;26.10;8.90;;;;;;;5.33;99.21;101047.06;6050335;28;20029;-71
2022/12/20 00:24:59;;;;;;;21.07;9.13;;;;;;;5.35;98.72;101049.59;6051846;28;20026;-74
2022/12/20 00:27:54;;;;;;;25.40;8.90;;;;;;;5.30;99.35;101038.53;6050568;28;20071;-73
2022/12/20 00:30:53;;;;;;;20.60;9.63;;;;;;;5.40;99.24;101063.28;6051409;28;20056;-72
2022/12/20 00:33:50;;;;;;;21.60;9.02;;;;;;;5.37;99.27;101031.94;6050464;28;20269;-73
2022/12/20 00:36:46;;;;;;;20.60;8.55;;;;;;;5.40;99.55;101052.75;6051239;28;20507;-73
2022/12/20 00:39:41;;;;;;;21.70;8.87;;;;;;;5.52;99.19;101053.72;6051443;28;20034;-73
2022/12/20 00:42:36;;;;;;;19.47;7.07;;;;;;;5.47;99.29;101058.41;6050601;28;20030;-72
2022/12/20 00:45:32;;;;;;;22.10;7.77;;;;;;;5.45;98.98;101052.44;6051204;28;20045;-72
2022/12/20 00:48:29;;;;;;;22.50;6.90;;;;;;;5.49;99.62;101051.28;6051281;28;20054;-71
2022/12/20 00:51:27;;;;;;;24.33;9.32;;;;;;;5.55;99.27;101051.69;6050643;28;20032;-72
2022/12/20 00:54:22;;;;;;;16.95;7.78;;;;;;;5.62;99.48;101047.72;6050271;28;20049;-74
2022/12/20 00:57:17;;;;;;;21.83;9.47;;;;;;;5.65;99.21;101036.97;6050832;28;20044;-72
2022/12/20 01:00:14;;;;;;;17.57;7.90;;;;;;;5.63;98.68;101033.59;6051190;28;20479;-71
2022/12/20 01:03:09;;;;;;;19.63;7.45;;;;;;;5.67;99.27;101045.59;6049761;28;20052;-73
2022/12/20 01:06:09;;;;;;;20.85;7.88;;;;;;;5.61;99.26;101029.38;6050661;28;20132;-70
2022/12/20 01:09:04;;;;;;;22.85;8.48;;;;;;;5.65;99.09;101041.41;6050852;28;20105;-71
2022/12/20 01:12:00;;;;;;;19.30;8.52;;;;;;;5.75;99.31;101035.38;6049387;28;20029;-70
2022/12/20 01:14:55;;;;;;;22.63;8.97;;;;;;;5.71;99.31;101025.16;6050391;28;20129;-71
2022/12/20 01:17:50;;;;;;;20.33;9.63;;;;;;;5.73;99.24;101024.13;6050161;28;20436;-71
2022/12/20 01:20:46;;;;;;;22.50;8.93;;;;;;;5.78;98.57;101022.00;6050660;28;20042;-72
2022/12/20 01:23:41;;;;;;;27.70;9.03;;;;;;;5.82;98.45;101039.25;6049535;28;20506;-73
2022/12/20 01:26:36;;;;;;;15.85;8.15;;;;;;;5.75;98.56;101027.47;6049748;28;20069;-73
2022/12/20 01:29:32;;;;;;;19.90;9.33;;;;;;;5.87;98.71;101042.44;6050385;28;20120;-72
2022/12/20 01:32:27;;;;;;;19.30;7.93;;;;;;;5.79;98.32;101028.09;6049055;28;20030;-72
2022/12/20 01:35:22;;;;;;;18.87;8.13;;;;;;;5.81;98.87;101029.69;6049553;28;20084;-72
2022/12/20 01:38:18;;;;;;;24.50;9.57;;;;;;;5.78;98.68;101027.28;6050188;28;20284;-74
2022/12/20 01:41:15;;;;;;;19.20;7.88;;;;;;;5.71;98.99;101026.00;6049863;28;20033;-72
2022/12/20 01:44:31;;;;;;;18.52;7.80;;;;;;;5.82;99.04;101036.63;6049390;28;20029;-74
2022/12/20 01:47:29;;;;;;;21.02;9.30;;;;;;;5.75;98.97;101016.13;6035685;28;20133;-73
2022/12/20 01:50:24;;;;;;;19.20;8.65;;;;;;;5.70;99.79;101012.97;6049547;28;20065;-73
2022/12/20 01:53:21;;;;;;;17.42;7.90;;;;;;;5.85;99.60;101025.06;6031507;28;20052;-72
2022/12/20 01:56:17;;;;;;;18.45;8.50;;;;;;;5.79;99.61;101007.88;6049625;28;20045;-71
2022/12/20 01:59:13;;;;;;;18.90;6.47;;;;;;;5.82;99.66;101002.41;6049906;28;20038;-74
2022/12/20 02:02:10;;;;;;;22.77;7.40;;;;;;;5.94;99.69;101004.22;6048829;28;20038;-74
2022/12/20 02:05:06;;;;;;;17.70;7.82;;;;;;;5.96;99.57;100994.41;6048193;28;20037;-72
2022/12/20 02:08:01;;;;;;;19.75;8.10;;;;;;;6.08;99.06;100997.13;6049467;28;20049;-73
2022/12/20 02:11:34;;;;;;;15.52;7.47;;;;;;;6.16;99.07;101005.31;6048586;28;20033;-71
2022/12/20 02:15:04;;;;;;;18.40;7.00;;;;;;;6.18;98.94;101000.75;6048408;28;20037;-71
2022/12/20 02:18:15;;;;;;;17.38;6.30;;;;;;;6.30;98.45;101000.72;6049220;28;20076;-74
2022/12/20 02:21:27;;;;;;;12.73;6.50;;;;;;;6.31;98.35;100977.84;6048643;28;20153;-73
2022/12/20 02:24:42;;;;;;;19.00;8.32;;;;;;;6.38;98.03;101006.28;6048540;28;20057;-71
2022/12/20 02:27:45;;;;;;;20.60;8.75;;;;;;;6.37;98.13;100982.66;6049678;28;20065;-74
2022/12/20 02:30:41;;;;;;;17.77;7.78;;;;;;;6.43;97.83;100976.97;6047905;28;20045;-73
2022/12/20 02:33:38;;;;;;;18.95;7.30;;;;;;;6.38;97.97;100979.94;6046643;28;20045;-71
2022/12/20 02:36:33;;;;;;;17.60;7.93;;;;;;;6.45;97.67;100982.94;6031930;28;20160;-73
2022/12/20 02:39:30;;;;;;;20.27;9.10;;;;;;;6.51;97.65;100988.63;6049208;28;20038;-72
2022/12/20 02:42:25;;;;;;;20.10;6.63;;;;;;;6.53;97.84;100962.13;6031005;28;20353;-72
2022/12/20 02:45:25;;;;;;;17.63;7.25;;;;;;;6.59;97.37;100977.50;6047525;28;20629;-73
2022/12/20 02:48:21;;;;;;;16.55;8.15;;;;;;;6.66;96.82;101005.06;6049618;28;20117;-74
2022/12/20 02:51:18;;;;;;;17.05;6.93;;;;;;;6.55;97.14;100976.88;6052036;28;20052;-72
2022/12/20 02:54:14;;;;;;;12.13;5.60;;;;;;;6.71;97.15;100965.22;6052916;28;20030;-72
2022/12/20 02:57:17;;;;;;;15.80;7.95;;;;;;;6.74;96.88;100960.53;6036357;28;20514;-73
2022/12/20 03:00:14;;;;;;;18.88;8.45;;;;;;;6.71;97.03;100979.22;6041350;28;20054;-72
2022/12/20 03:03:22;;;;;;;14.48;6.13;;;;;;;6.71;97.48;100981.88;6052441;28;20096;-74
2022/12/20 03:06:17;;;;;;;19.35;8.45;;;;;;;6.75;97.34;100983.31;6051623;28;20458;-74
2022/12/20 03:09:12;;;;;;;17.93;7.17;;;;;;;6.62;97.45;100961.47;6053585;28;20040;-73
2022/12/20 03:12:10;;;;;;;15.73;7.17;;;;;;;6.67;97.88;100959.31;6052793;28;20026;-72
2022/12/20 03:15:06;;;;;;;13.05;7.40;;;;;;;6.79;97.49;100963.69;6052758;28;20038;-73
2022/12/20 03:18:01;;;;;;;16.55;8.27;;;;;;;6.73;97.48;100948.34;6053247;28;20462;-72
2022/12/20 03:20:57;;;;;;;14.82;5.78;;;;;;;6.74;97.16;100954.44;6052689;28;20034;-71
2022/12/20 03:23:52;;;;;;;17.83;9.07;;;;;;;6.74;97.65;100954.44;6052510;28;20422;-73
2022/12/20 03:26:47;;;;;;;18.33;8.20;;;;;;;6.72;97.52;100961.59;6052793;28;20034;-72
2022/12/20 03:29:44;;;;;;;21.17;7.50;;;;;;;6.78;97.78;100972.53;6052733;28;20478;-73
2022/12/20 03:32:40;;;;;;;20.85;7.72;;;;;;;6.83;97.76;100954.56;6050798;28;20483;-74
2022/12/20 03:35:35;;;;;;;19.80;7.90;;;;;;;6.91;97.32;100957.47;6052719;28;20033;-73
2022/12/20 03:38:30;;;;;;;16.73;6.90;;;;;;;6.95;96.96;100951.03;6052242;28;20061;-73
2022/12/20 03:41:26;;;;;;;18.70;8.45;;;;;;;6.87;97.13;100934.09;6052706;28;20032;-73
2022/12/20 03:44:21;;;;;;;18.73;8.55;;;;;;;6.96;97.07;100944.78;6051639;28;20467;-73
2022/12/20 03:47:16;;;;;;;17.58;7.70;;;;;;;6.88;96.82;100933.97;6052489;28;20025;-72
2022/12/20 03:50:12;;;;;;;17.50;6.90;;;;;;;6.88;97.55;100948.94;6052874;28;20034;-72
2022/12/20 03:53:07;;;;;;;17.20;6.50;;;;;;;6.87;97.66;100958.69;6053551;28;20029;-71
2022/12/20 03:56:03;;;;;;;17.80;7.50;;;;;;;6.95;97.68;100963.34;6053278;28;20120;-72
2022/12/20 03:58:59;;;;;;;14.93;7.60;;;;;;;6.96;97.68;100959.75;6052183;28;20677;-74
2022/12/20 04:01:54;;;;;;;14.90;6.75;;;;;;;6.99;97.60;100973.53;6049812;28;20081;-75
2022/12/20 04:04:49;;;;;;;18.87;7.83;;;;;;;6.99;97.67;100952.44;6052020;28;20084;-74
2022/12/20 04:07:45;;;;;;;23.07;9.43;;;;;;;7.07;97.80;100943.94;6051927;28;20034;-73
2022/12/20 04:13:54;;;;;;;15.38;6.05;;;;;;;7.13;96.67;100946.13;6051237;28;20253;-72
2022/12/20 04:16:49;;;;;;;18.30;7.33;;;;;;;7.04;97.52;100947.66;6051970;28;20057;-72
2022/12/20 04:19:45;;;;;;;18.40;8.13;;;;;;;7.05;97.50;100957.25;6051715;28;20288;-74
2022/12/20 04:22:40;;;;;;;19.53;7.10;;;;;;;7.05;97.26;100946.72;6051167;28;20265;-71
2022/12/20 04:25:35;;;;;;;15.47;8.03;;;;;;;7.07;96.71;100936.03;6051493;28;20080;-72
2022/12/20 04:28:31;;;;;;;12.20;5.63;;;;;;;7.16;96.56;100956.44;6051685;28;20089;-71
2022/12/20 04:31:26;;;;;;;15.88;7.80;;;;;;;7.14;96.85;100964.47;6051291;28;20368;-74
2022/12/20 04:34:21;;;;;;;16.02;6.90;;;;;;;7.12;96.59;100960.28;6050570;28;20073;-74
2022/12/20 04:37:17;;;;;;;12.97;6.70;;;;;;;7.24;96.50;100976.94;6051020;28;20487;-72
2022/12/20 04:40:12;;;;;;;15.52;6.65;;;;;;;7.23;96.62;100983.19;6050937;28;20171;-71
2022/12/20 04:43:08;;;;;;;14.90;6.30;;;;;;;7.32;96.06;100972.75;6050574;28;20037;-72
2022/12/20 04:46:03;;;;;;;13.90;6.35;;;;;;;7.35;95.79;100993.63;6051215;28;20030;-73
2022/12/20 04:48:58;;;;;;;14.97;6.83;;;;;;;7.32;96.02;100982.47;6051083;28;20030;-73
2022/12/20 04:51:53;;;;;;;17.70;6.60;;;;;;;7.26;95.57;100967.09;6049479;28;20034;-73
2022/12/20 04:54:49;;;;;;;17.40;7.97;;;;;;;7.27;96.12;100967.00;6050629;28;20418;-72
2022/12/20 04:57:44;;;;;;;14.73;6.05;;;;;;;7.23;96.42;100959.44;6051015;28;20018;-71
2022/12/20 05:00:39;;;;;;;11.50;5.97;;;;;;;7.32;96.02;100966.63;6050850;28;20061;-73
2022/12/20 05:03:36;;;;;;;14.47;6.57;;;;;;;7.44;96.29;100960.41;6048415;28;20273;-74
2022/12/20 05:06:31;;;;;;;15.40;5.53;;;;;;;7.38;95.97;100966.16;6050842;28;20033;-74
2022/12/20 05:09:26;;;;;;;14.27;6.57;;;;;;;7.34;95.87;100965.53;6050584;28;20057;-74
2022/12/20 05:12:21;;;;;;;13.87;6.50;;;;;;;7.35;96.53;100974.31;6049273;28;20044;-74
2022/12/20 05:15:17;;;;;;;14.80;6.27;;;;;;;7.42;96.46;100968.44;6050568;28;20491;-73
2022/12/20 05:18:12;;;;;;;14.33;5.50;;;;;;;7.42;96.50;100955.25;6050542;28;20507;-73
2022/12/20 05:27:35;;;;;;;14.25;6.50;;;;;;;7.45;96.44;100972.63;6050368;28;20026;-73
2022/12/20 05:30:30;;;;;;;15.03;5.97;;;;;;;7.42;97.12;100970.25;6050106;28;20038;-72
2022/12/20 05:33:26;;;;;;;12.03;5.77;;;;;;;7.37;97.61;100956.56;6049049;28;20284;-72
2022/12/20 05:36:21;;;;;;;13.98;6.93;;;;;;;7.37;98.28;100967.09;6050094;28;20766;-76
2022/12/20 05:39:16;;;;;;;13.43;6.23;;;;;;;7.26;99.01;100957.41;6049791;28;20038;-75
2022/12/20 05:42:12;;;;;;;14.40;6.23;;;;;;;7.26;99.99;100969.72;6049465;28;20426;-75
2022/12/20 05:45:07;;;;;;;16.37;6.33;;;;;;;7.31;100.00;100983.44;6049888;28;20025;-75
2022/12/20 05:48:03;;;;;;;15.05;6.20;;;;;;;7.16;100.00;100956.44;6049864;28;20026;-74
2022/12/20 05:50:58;;;;;;;17.55;7.43;;;;;;;7.18;100.00;100971.19;6049166;28;20531;-75
2022/12/20 05:53:53;;;;;;;17.93;6.80;;;;;;;7.08;100.00;100964.09;6049213;28;20034;-73
2022/12/20 05:56:49;;;;;;;20.98;7.95;;;;;;;7.05;100.00;100962.53;6049792;28;20033;-75
2022/12/20 05:59:44;;;;;;;19.93;6.93;;;;;;;7.06;100.00;100966.00;6049691;28;20046;-73
2022/12/20 06:02:40;;;;;;;20.00;7.70;;;;;;;7.06;100.00;100951.03;6048537;28;20272;-73
2022/12/20 06:05:36;;;;;;;16.67;7.32;;;;;;;6.95;100.00;100948.38;6049283;28;20303;-74
2022/12/20 06:08:31;;;;;;;17.35;7.70;;;;;;;6.97;100.00;100951.75;6049780;28;20034;-73
2022/12/20 06:11:27;;;;;;;21.70;7.57;;;;;;;7.01;100.00;100974.25;6049907;28;20065;-72
2022/12/20 06:14:22;;;;;;;15.47;7.77;;;;;;;6.96;100.00;100949.19;6047991;28;20068;-73
2022/12/20 06:17:18;;;;;;;16.13;7.43;;;;;;;6.91;100.00;100946.91;6049665;28;20030;-76
2022/12/20 06:20:14;;;;;;;15.38;7.07;;;;;;;6.89;100.00;100948.84;6048981;28;20072;-76
2022/12/20 06:23:09;;;;;;;15.45;6.78;;;;;;;6.88;100.00;100948.94;6045747;28;20030;-74
2022/12/20 06:26:08;;;;;;;18.33;7.10;;;;;;;6.89;100.00;100946.22;6047972;28;20026;-74
2022/12/20 06:29:09;;;;;;;13.88;6.13;;;;;;;6.89;100.00;100943.56;6053816;28;20479;-75
2022/12/20 06:32:04;;;;;;;15.73;7.70;;;;;;;7.04;100.00;100958.22;6053182;28;20095;-74
2022/12/20 06:34:59;;;;;;;19.67;7.27;;;;;;;7.06;100.00;100958.94;6053035;28;20475;-74
2022/12/20 06:37:55;;;;;;;15.70;7.03;;;;;;;6.98;100.00;100950.78;6053461;28;20281;-73
2022/12/20 06:40:50;;;;;;;16.90;7.43;;;;;;;6.99;100.00;100936.63;6053166;28;20387;-74
2022/12/20 06:43:46;;;;;;;14.33;6.10;;;;;;;7.13;100.00;100954.88;6052962;28;20121;-75
2022/12/20 06:46:41;;;;;;;14.95;7.53;;;;;;;7.18;100.00;100946.59;6053534;28;20124;-72
2022/12/20 06:49:37;;;;;;;16.50;7.70;;;;;;;7.17;100.00;100937.03;6052182;28;20038;-74
2022/12/20 06:52:32;;;;;;;13.70;7.23;;;;;;;7.20;100.00;100942.88;6052249;28;20384;-73
2022/12/20 06:55:27;;;;;;;18.65;7.03;;;;;;;7.26;100.00;100946.00;6052398;28;20487;-73
2022/12/20 06:58:23;;;;;;;18.37;6.93;;;;;;;7.17;100.00;100932.56;6053145;28;20037;-73
2022/12/20 07:01:18;;;;;;;20.00;8.13;;;;;;;7.19;100.00;100929.81;6052923;28;20034;-74
2022/12/20 07:04:13;;;;;;;16.97;7.13;;;;;;;7.20;100.00;100929.69;6051398;28;20057;-70
2022/12/20 07:07:11;;;;;;;16.20;6.80;;;;;;;7.18;100.00;100928.97;6052333;28;20489;-73
2022/12/20 07:10:07;;;;;;;11.68;6.32;;;;;;;7.25;100.00;100947.81;6034068;28;20109;-72
2022/12/20 07:13:02;;;;;;;16.20;7.13;;;;;;;7.33;100.00;100941.94;6050904;28;20057;-74
2022/12/20 07:15:59;;;;;;;17.53;7.77;;;;;;;7.28;100.00;100933.56;6051289;28;20029;-75
2022/12/20 07:18:54;;;;;;;14.23;7.13;;;;;;;7.18;100.00;100926.34;6059232;28;20096;-75
2022/12/20 07:21:49;;;;;;;16.20;7.33;;;;;;;7.30;100.00;100947.44;6052321;28;20037;-76
2022/12/20 07:24:46;;;;;;;13.90;6.40;;;;;;;7.26;100.00;100928.38;6052806;28;20095;-72
2022/12/20 07:27:41;;;;;;;16.85;7.47;;;;;;;7.22;100.00;100929.59;6051485;28;20399;-72
2022/12/20 07:30:37;;;;;;;16.55;6.82;;;;;;;7.10;100.00;100934.00;6053102;28;20034;-72
2022/12/20 07:33:32;;;;;;;15.90;7.03;;;;;;;7.04;100.00;100936.28;6050793;28;20073;-74
2022/12/20 07:36:28;;;;;;;14.95;6.68;;;;;;;6.96;100.00;100925.47;6052725;28;20776;-76
2022/12/20 07:39:23;;;;;;;14.60;6.80;;;;;;;6.95;100.00;100918.53;6052312;28;20066;-72
2022/12/20 07:42:18;;;;;;;15.00;7.07;;;;;;;6.84;100.00;100919.38;6052182;28;20105;-74
2022/12/20 07:45:14;;;;;;;16.60;7.07;;;;;;;6.90;100.00;100939.97;6035879;28;20030;-74
2022/12/20 07:48:09;;;;;;;17.83;6.72;;;;;;;6.92;100.00;100938.06;6051362;28;20084;-73
2022/12/20 07:51:11;;;;;;;16.77;6.57;;;;;;;6.83;100.00;100930.00;6051488;28;20033;-72
2022/12/20 07:54:15;;;;;;;14.35;6.80;;;;;;;6.86;100.00;100942.97;6050059;28;20029;-73
2022/12/20 07:57:14;;;;;;;18.30;7.53;;;;;;;6.85;100.00;100933.41;6051337;28;20049;-72
2022/12/20 08:00:11;;;;;;;20.92;7.07;;;;;;;6.88;100.00;100941.88;6052037;28;20068;-72
2022/12/20 08:03:11;;;;;;;15.65;7.05;;;;;;;6.88;100.00;100943.66;6050092;28;20398;-74
2022/12/20 08:06:07;;;;;;;18.48;7.18;;;;;;;6.93;100.00;100938.91;6051837;28;20139;-74
2022/12/20 08:09:04;;;;;;;17.70;7.60;;;;;;;6.89;100.00;100946.22;6051870;28;20470;-75
2022/12/20 08:12:00;;;;;;;19.80;8.13;;;;;;;6.89;100.00;100935.66;6051354;28;20079;-73
2022/12/20 08:14:56;;;;;;;23.60;8.60;;;;;;;6.87;100.00;100913.88;6050909;28;20045;-72
2022/12/20 08:17:51;;;;;;;17.05;7.10;;;;;;;7.08;100.00;100922.75;6066157;28;20289;-74
2022/12/20 08:20:47;;;;;;;18.47;7.80;;;;;;;7.01;100.00;100908.34;6051279;28;20144;-71
2022/12/20 08:23:42;;;;;;;16.27;6.60;;;;;;;7.15;100.00;100918.66;6050415;28;20052;-74
2022/12/20 08:26:38;;;;;;;15.80;6.60;;;;;;;7.28;100.00;100908.03;6051194;28;20037;-74
2022/12/20 08:29:34;;;;;;;16.70;7.63;;;;;;;7.26;100.00;100901.16;6050993;28;20037;-74
2022/12/20 08:32:29;;;;;;;16.87;6.87;;;;;;;7.36;100.00;100916.19;6050013;28;20057;-71
2022/12/20 08:35:24;;;;;;;15.40;6.43;;;;;;;7.24;100.00;100896.03;6051097;28;20034;-72
2022/12/20 08:38:20;;;;;;;15.50;6.70;;;;;;;7.25;100.00;100884.53;6050345;28;20037;-72
2022/12/20 08:41:15;;;;;;;17.10;7.30;;;;;;;7.28;100.00;100902.75;6051369;28;20033;-72
2022/12/20 08:44:10;;;;;;;17.65;8.10;;;;;;;7.37;100.00;100904.63;6050236;28;20390;-74
2022/12/20 08:47:06;;;;;;;16.50;6.70;;;;;;;7.37;100.00;100914.34;6050573;28;20039;-74
2022/12/20 08:50:02;;;;;;;16.80;6.23;;;;;;;7.41;100.00;100894.69;6050586;28;20030;-74
2022/12/20 08:52:57;;;;;;;16.10;6.63;;;;;;;7.48;100.00;100914.34;6050976;28;20289;-72
2022/12/20 08:55:52;;;;;;;16.33;6.53;;;;;;;7.49;100.00;100921.31;6054173;28;20038;-72
2022/12/20 08:58:48;;;;;;;15.13;6.50;;;;;;;7.42;100.00;100912.22;6052591;28;20044;-73
2022/12/20 09:01:43;;;;;;;13.20;6.03;;;;;;;7.51;100.00;100904.41;6051031;28;20030;-71
2022/12/20 09:04:39;;;;;;;17.40;6.43;;;;;;;7.59;100.00;100909.06;6049781;28;20029;-71
2022/12/20 09:07:34;;;;;;;14.00;5.32;;;;;;;7.55;100.00;100897.09;6050610;28;20075;-71
2022/12/20 09:10:29;;;;;;;12.33;5.27;;;;;;;7.64;100.00;100909.53;6050209;28;20494;-75
2022/12/20 09:13:24;;;;;;;12.27;5.40;;;;;;;7.61;100.00;100886.84;6048962;28;20281;-75
2022/12/20 09:16:23;;;;;;;13.83;5.53;;;;;;;7.62;100.00;100878.00;6049183;28;20275;-71
2022/12/20 09:19:18;;;;;;;12.95;6.22;;;;;;;7.69;100.00;100881.00;6050507;28;20037;-71
2022/12/20 09:22:13;;;;;;;11.47;5.77;;;;;;;7.64;100.00;100888.41;6049894;28;20033;-71
2022/12/20 09:25:09;;;;;;;12.40;5.70;;;;;;;7.69;100.00;100891.56;6049524;28;20032;-74
2022/12/20 09:28:04;;;;;;;10.67;5.27;;;;;;;7.75;100.00;100896.31;6050196;28;20108;-74
2022/12/20 09:31:02;;;;;;;12.45;5.43;;;;;;;7.72;100.00;100886.84;6049849;28;20435;-74
2022/12/20 09:33:58;;;;;;;18.08;6.90;;;;;;;7.70;100.00;100893.22;6048473;28;20029;-73
2022/12/20 09:36:54;;;;;;;14.65;6.72;;;;;;;7.84;100.00;100885.03;6049862;28;20034;-71
2022/12/20 09:39:50;;;;;;;13.87;7.00;;;;;;;7.88;100.00;100883.78;6050107;28;20041;-71
2022/12/20 09:42:46;;;;;;;13.10;6.05;;;;;;;8.02;100.00;100890.59;6048913;28;20037;-71
2022/12/20 09:45:42;;;;;;;16.40;6.78;;;;;;;8.09;99.80;100889.97;6032234;28;20040;-72
2022/12/20 09:48:38;;;;;;;13.60;6.15;;;;;;;7.95;98.95;100850.66;6049376;28;20041;-71
2022/12/20 09:51:54;;;;;;;16.25;6.85;;;;;;;8.09;99.01;100858.28;6049862;28;20025;-72
2022/12/20 09:55:00;;;;;;;13.25;6.13;;;;;;;8.13;99.11;100864.97;6048364;28;20091;-73
2022/12/20 09:58:09;;;;;;;13.55;5.88;;;;;;;8.24;98.88;100866.72;6048736;28;20026;-72
2022/12/20 10:01:33;;;;;;;10.30;4.90;;;;;;;8.36;97.07;100871.88;6031397;28;20041;-72
2022/12/20 10:04:31;;;;;;;13.73;4.82;;;;;;;8.31;96.95;100862.66;6028404;28;20499;-70
2022/12/20 10:07:35;;;;;;;10.65;5.13;;;;;;;8.36;96.24;100863.97;6048813;28;20383;-74
2022/12/20 10:10:44;;;;;;;9.88;4.65;;;;;;;8.47;95.56;100856.94;6049624;28;20034;-72
2022/12/20 10:14:01;;;;;;;11.98;4.60;;;;;;;8.51;95.31;100859.16;6030905;28;20041;-71
2022/12/20 10:17:08;;;;;;;9.70;4.70;;;;;;;8.61;94.56;100852.16;6040816;28;20113;-73
2022/12/20 10:20:17;;;;;;;13.30;4.57;;;;;;;8.57;94.26;100831.38;6049168;28;20479;-73
2022/12/20 10:23:22;;;;;;;11.32;5.22;;;;;;;8.65;94.00;100834.22;6047459;28;20045;-71
2022/12/20 10:26:17;;;;;;;11.13;4.90;;;;;;;8.60;94.32;100825.84;6047212;28;20061;-73
2022/12/20 10:29:13;;;;;;;9.60;4.20;;;;;;;8.68;94.21;100828.66;6050785;28;20038;-72
2022/12/20 10:32:15;;;;;;;10.10;4.00;;;;;;;8.67;93.84;100816.44;6056403;28;20284;-70
2022/12/20 10:35:13;;;;;;;9.82;5.07;;;;;;;8.74;93.51;100818.41;6057199;28;20400;-70
2022/12/20 10:38:16;;;;;;;13.65;5.05;;;;;;;8.72;93.75;100819.53;6049388;28;20037;-73
2022/12/20 10:41:18;;;;;;;9.70;4.72;;;;;;;8.73;93.83;100818.53;6048024;28;20072;-73
2022/12/20 10:44:13;;;;;;;9.50;4.40;;;;;;;8.79;93.39;100823.31;6048030;28;20235;-74
2022/12/20 10:47:29;;;;;;;9.10;4.50;;;;;;;8.76;92.91;100795.31;6048593;28;20038;-72
2022/12/20 10:50:25;;;;;;;10.52;4.47;;;;;;;8.93;92.31;100802.66;6031291;28;20034;-71
2022/12/20 10:53:23;;;;;;;9.95;4.30;;;;;;;8.95;91.98;100797.22;6047501;28;20034;-72
2022/12/20 10:56:33;;;;;;;11.60;4.38;;;;;;;8.99;91.85;100793.34;6049155;28;20049;-72
2022/12/20 10:59:36;;;;;;;9.27;3.85;;;;;;;8.98;92.02;100789.84;6048808;28;20033;-72
2022/12/20 11:02:34;;;;;;;10.13;4.60;;;;;;;9.01;91.87;100772.88;6047235;28;20041;-71
2022/12/20 11:05:29;;;;;;;7.43;3.95;;;;;;;9.12;91.38;100759.53;6048397;28;20038;-73
2022/12/20 11:08:26;;;;;;;8.43;3.80;;;;;;;9.11;91.25;100747.28;6048565;28;20088;-72
2022/12/20 11:11:23;;;;;;;8.60;3.95;;;;;;;9.17;90.57;100752.03;6050551;28;20026;-72
2022/12/20 11:14:19;;;;;;;14.65;4.82;;;;;;;9.19;91.09;100771.25;6052086;28;20034;-73
2022/12/20 11:17:39;;;;;;;8.05;3.78;;;;;;;9.34;90.53;100774.34;6052864;28;20030;-73
2022/12/20 11:20:42;;;;;;;8.60;3.97;;;;;;;9.27;90.51;100750.22;6052566;28;20041;-72
2022/12/20 11:24:12;;;;;;;9.85;3.90;;;;;;;9.42;89.94;100764.75;6052358;28;20030;-72
2022/12/20 11:27:25;;;;;;;8.98;4.05;;;;;;;9.51;90.03;100771.84;6032210;28;20042;-71
2022/12/20 11:30:26;;;;;;;11.18;3.90;;;;;;;9.49;89.16;100752.63;6052927;28;20049;-71
2022/12/20 11:33:50;;;;;;;8.88;3.38;;;;;;;9.56;88.98;100760.88;6050967;28;20510;-72
2022/12/20 11:37:02;;;;;;;8.23;3.72;;;;;;;9.43;89.40;100755.81;5994493;28;20168;-73
2022/12/20 11:40:30;;;;;;;8.75;3.80;;;;;;;9.50;89.57;100751.66;6052769;28;20498;-73
2022/12/20 11:43:34;;;;;;;6.63;3.38;;;;;;;9.61;88.66;100737.47;6042637;28;20033;-71
2022/12/20 11:46:39;;;;;;;7.30;3.08;;;;;;;9.64;89.15;100745.13;6052601;28;20041;-71
2022/12/20 11:50:03;;;;;;;6.75;3.17;;;;;;;9.78;88.42;100746.53;6067089;28;20044;-71
2022/12/20 11:53:07;;;;;;;6.50;3.38;;;;;;;9.70;88.25;100741.09;6051411;28;20038;-71
2022/12/20 11:56:27;;;;;;;7.78;3.20;;;;;;;9.69;88.36;100731.47;6035613;28;20073;-71
2022/12/20 11:59:42;;;;;;;9.02;3.85;;;;;;;9.65;88.71;100730.09;6041125;28;20077;-71
2022/12/20 12:02:43;;;;;;;7.13;3.45;;;;;;;9.71;88.69;100729.50;6051505;28;20057;-72
2022/12/20 12:05:47;;;;;;;8.00;3.67;;;;;;;9.66;88.46;100721.16;6052181;28;20418;-71
2022/12/20 12:08:53;;;;;;;9.20;3.47;;;;;;;9.71;88.33;100718.91;6052016;28;20449;-71
2022/12/20 12:11:52;;;;;;;10.23;3.90;;;;;;;9.64;88.58;100707.22;6033328;28;20041;-72
2022/12/20 12:14:59;;;;;;;8.02;3.60;;;;;;;9.69;88.80;100710.28;6051304;28;20045;-72
2022/12/20 12:18:05;;;;;;;8.60;3.40;;;;;;;9.74;88.49;100697.44;6066889;28;20056;-73
2022/12/20 12:21:04;;;;;;;8.23;3.30;;;;;;;9.76;88.33;100716.69;6033779;28;20033;-72
2022/12/20 12:24:07;;;;;;;7.82;3.50;;;;;;;9.75;88.26;100720.31;6050267;28;20116;-71
2022/12/20 12:27:02;;;;;;;6.57;3.30;;;;;;;9.75;88.45;100715.88;6033840;28;20056;-71
2022/12/20 12:29:58;;;;;;;7.03;3.45;;;;;;;9.71;88.36;100713.63;6051574;28;20065;-70
2022/12/20 12:32:59;;;;;;;6.97;3.93;;;;;;;9.73;87.96;100711.69;6049992;28;20034;-72
2022/12/20 12:36:32;;;;;;;7.45;3.40;;;;;;;9.61;89.13;100703.03;6049489;28;20784;-73
2022/12/20 12:39:59;;;;;;;9.23;4.00;;;;;;;9.53;89.26;100694.97;6050435;28;20439;-71
2022/12/20 12:43:22;;;;;;;8.32;3.65;;;;;;;9.61;89.01;100708.34;6030354;28;20034;-72
2022/12/20 12:46:20;;;;;;;6.05;3.22;;;;;;;9.61;88.75;100710.16;6051048;28;20483;-71
2022/12/20 12:49:18;;;;;;;8.82;3.05;;;;;;;9.43;89.34;100684.38;6050544;28;20033;-72
2022/12/20 12:52:29;;;;;;;7.45;3.60;;;;;;;9.45;89.19;100666.56;6064682;28;20099;-74
2022/12/20 12:55:41;;;;;;;6.53;3.20;;;;;;;9.49;89.46;100673.22;6032887;28;20034;-74
2022/12/20 12:58:37;;;;;;;8.70;3.40;;;;;;;9.63;88.23;100673.78;6049398;28;20124;-70
2022/12/20 13:01:53;;;;;;;7.53;3.90;;;;;;;9.71;87.61;100676.53;6048285;28;20403;-71
2022/12/20 13:04:58;;;;;;;6.53;3.10;;;;;;;9.69;87.32;100662.63;6049831;28;20055;-72
2022/12/20 13:07:53;;;;;;;6.03;2.65;;;;;;;9.77;86.92;100665.41;6048688;28;20050;-73
2022/12/20 13:10:49;;;;;;;7.93;3.80;;;;;;;9.88;86.21;100684.63;6049944;28;20025;-72
2022/12/20 13:13:44;;;;;;;8.60;2.97;;;;;;;9.83;86.41;100656.88;6049462;28;20491;-71
2022/12/20 13:16:40;;;;;;;7.70;3.73;;;;;;;9.82;85.99;100663.16;6049903;28;20426;-73
2022/12/20 13:19:40;;;;;;;6.93;3.65;;;;;;;9.89;85.97;100658.97;6050565;28;20312;-72
2022/12/20 13:22:36;;;;;;;9.00;3.13;;;;;;;9.81;86.08;100650.91;6048559;28;20034;-72
2022/12/20 13:25:32;;;;;;;9.87;3.23;;;;;;;9.80;86.56;100649.22;6049948;28;20494;-72
2022/12/20 13:28:28;;;;;;;6.72;3.17;;;;;;;9.86;86.01;100668.03;6050022;28;20038;-73
2022/12/20 13:31:26;;;;;;;7.95;3.30;;;;;;;9.82;86.39;100658.69;6049583;28;20552;-71
2022/12/20 13:34:36;;;;;;;7.03;2.85;;;;;;;9.81;86.44;100672.91;6049171;28;20045;-70
2022/12/20 13:37:52;;;;;;;5.30;2.88;;;;;;;9.72;86.49;100644.66;6050108;28;20034;-71
2022/12/20 13:40:51;;;;;;;6.03;2.67;;;;;;;9.81;86.17;100664.16;6049732;28;20046;-71
2022/12/20 13:43:47;;;;;;;7.00;3.22;;;;;;;9.78;86.47;100656.47;6049026;28;20479;-72
2022/12/20 13:46:53;;;;;;;6.60;2.95;;;;;;;9.78;86.60;100672.38;6049432;28;20038;-71
2022/12/20 13:49:48;;;;;;;7.78;3.30;;;;;;;9.80;86.28;100670.41;6060670;28;20402;-73
2022/12/20 13:52:43;;;;;;;5.80;2.70;;;;;;;9.77;85.80;100655.66;6048995;28;20026;-72
2022/12/20 13:55:41;;;;;;;6.10;2.47;;;;;;;9.78;85.85;100659.13;6049461;28;20768;-73
2022/12/20 13:58:41;;;;;;;6.00;3.17;;;;;;;9.84;85.85;100661.19;6032288;28;20038;-72
2022/12/20 14:01:46;;;;;;;5.57;2.80;;;;;;;9.78;86.14;100659.97;6049820;28;20032;-72